sensor_id;sensor_type;location;lat;lon;timestamp;P1;P2;P0
75946;PMS5003;64628;50.104;14.614;2023-05-16T00:02:17;34;32;
75946;PMS5003;64628;50.104;14.614;2023-05-16T00:04:41;30;30;
75946;PMS5003;64628;50.104;14.614;2023-05-16T00:07:06;34;34;
75946;PMS5003;64628;50.104;14.614;2023-05-16T00:09:32;45;35;
75946;PMS5003;64628;50.104;14.614;2023-05-16T00:11:57;39;35;
75946;PMS5003;64628;50.104;14.614;2023-05-16T00:14:22;43;40;
75946;PMS5003;64628;50.104;14.614;2023-05-16T00:16:48;34;34;
75946;PMS5003;64628;50.104;14.614;2023-05-16T00:19:13;35;33;
75946;PMS5003;64628;50.104;14.614;2023-05-16T00:21:39;32;27;
75946;PMS5003;64628;50.104;14.614;2023-05-16T00:24:05;41;38;
75946;PMS5003;64628;50.104;14.614;2023-05-16T00:26:30;37;37;
75946;PMS5003;64628;50.104;14.614;2023-05-16T00:28:55;34;32;
75946;PMS5003;64628;50.104;14.614;2023-05-16T00:31:20;40;39;
75946;PMS5003;64628;50.104;14.614;2023-05-16T00:33:46;34;28;
75946;PMS5003;64628;50.104;14.614;2023-05-16T00:36:11;42;40;
75946;PMS5003;64628;50.104;14.614;2023-05-16T00:38:36;26;26;
75946;PMS5003;64628;50.104;14.614;2023-05-16T00:41:02;36;28;
75946;PMS5003;64628;50.104;14.614;2023-05-16T00:43:27;33;30;
75946;PMS5003;64628;50.104;14.614;2023-05-16T00:45:52;35;32;
75946;PMS5003;64628;50.104;14.614;2023-05-16T00:48:18;27;25;
75946;PMS5003;64628;50.104;14.614;2023-05-16T00:50:44;35;33;
75946;PMS5003;64628;50.104;14.614;2023-05-16T00:53:09;32;32;
75946;PMS5003;64628;50.104;14.614;2023-05-16T00:55:34;35;31;
75946;PMS5003;64628;50.104;14.614;2023-05-16T00:57:59;44;40;
75946;PMS5003;64628;50.104;14.614;2023-05-16T01:00:25;39;36;
75946;PMS5003;64628;50.104;14.614;2023-05-16T01:02:50;42;35;
75946;PMS5003;64628;50.104;14.614;2023-05-16T01:05:16;39;34;
75946;PMS5003;64628;50.104;14.614;2023-05-16T01:07:41;41;34;
75946;PMS5003;64628;50.104;14.614;2023-05-16T01:10:07;35;34;
75946;PMS5003;64628;50.104;14.614;2023-05-16T01:12:36;36;35;
75946;PMS5003;64628;50.104;14.614;2023-05-16T01:15:01;35;32;
75946;PMS5003;64628;50.104;14.614;2023-05-16T01:17:25;37;33;
75946;PMS5003;64628;50.104;14.614;2023-05-16T01:19:52;42;35;
75946;PMS5003;64628;50.104;14.614;2023-05-16T01:22:15;34;31;
75946;PMS5003;64628;50.104;14.614;2023-05-16T01:24:42;41;35;
75946;PMS5003;64628;50.104;14.614;2023-05-16T01:27:05;40;35;
75946;PMS5003;64628;50.104;14.614;2023-05-16T01:29:31;45;40;
75946;PMS5003;64628;50.104;14.614;2023-05-16T01:31:56;36;34;
75946;PMS5003;64628;50.104;14.614;2023-05-16T01:34:21;42;36;
75946;PMS5003;64628;50.104;14.614;2023-05-16T01:36:49;38;34;
75946;PMS5003;64628;50.104;14.614;2023-05-16T01:39:13;46;40;
75946;PMS5003;64628;50.104;14.614;2023-05-16T01:41:39;47;41;
75946;PMS5003;64628;50.104;14.614;2023-05-16T01:44:04;38;36;
75946;PMS5003;64628;50.104;14.614;2023-05-16T01:46:29;49;43;
75946;PMS5003;64628;50.104;14.614;2023-05-16T01:48:57;38;33;
75946;PMS5003;64628;50.104;14.614;2023-05-16T01:51:20;39;34;
75946;PMS5003;64628;50.104;14.614;2023-05-16T01:53:45;46;40;
75946;PMS5003;64628;50.104;14.614;2023-05-16T01:56:12;44;37;
75946;PMS5003;64628;50.104;14.614;2023-05-16T01:58:36;34;32;
75946;PMS5003;64628;50.104;14.614;2023-05-16T02:01:02;38;35;
75946;PMS5003;64628;50.104;14.614;2023-05-16T02:03:26;41;34;
75946;PMS5003;64628;50.104;14.614;2023-05-16T02:05:52;51;39;
75946;PMS5003;64628;50.104;14.614;2023-05-16T02:08:17;35;33;
75946;PMS5003;64628;50.104;14.614;2023-05-16T02:10:43;38;37;
75946;PMS5003;64628;50.104;14.614;2023-05-16T02:13:08;34;31;
75946;PMS5003;64628;50.104;14.614;2023-05-16T02:15:33;35;32;
75946;PMS5003;64628;50.104;14.614;2023-05-16T03:06:42;43;39;
75946;PMS5003;64628;50.104;14.614;2023-05-16T03:09:03;37;36;
75946;PMS5003;64628;50.104;14.614;2023-05-16T03:16:13;40;36;
75946;PMS5003;64628;50.104;14.614;2023-05-16T03:33:12;34;32;
75946;PMS5003;64628;50.104;14.614;2023-05-16T03:35:42;44;43;
75946;PMS5003;64628;50.104;14.614;2023-05-16T04:02:13;42;41;
75946;PMS5003;64628;50.104;14.614;2023-05-16T04:23:59;40;37;
75946;PMS5003;64628;50.104;14.614;2023-05-16T04:26:31;43;38;
75946;PMS5003;64628;50.104;14.614;2023-05-16T04:36:16;37;34;
75946;PMS5003;64628;50.104;14.614;2023-05-16T05:12:37;36;35;
75946;PMS5003;64628;50.104;14.614;2023-05-16T05:15:04;34;34;
75946;PMS5003;64628;50.104;14.614;2023-05-16T05:17:22;34;34;
75946;PMS5003;64628;50.104;14.614;2023-05-16T05:24:35;34;30;
75946;PMS5003;64628;50.104;14.614;2023-05-16T05:27:05;36;33;
75946;PMS5003;64628;50.104;14.614;2023-05-16T05:29:25;53;50;
75946;PMS5003;64628;50.104;14.614;2023-05-16T05:31:51;40;38;
75946;PMS5003;64628;50.104;14.614;2023-05-16T05:39:07;39;37;
75946;PMS5003;64628;50.104;14.614;2023-05-16T05:41:32;42;38;
75946;PMS5003;64628;50.104;14.614;2023-05-16T05:43:58;38;36;
75946;PMS5003;64628;50.104;14.614;2023-05-16T05:46:24;38;38;
75946;PMS5003;64628;50.104;14.614;2023-05-16T05:48:50;41;41;
75946;PMS5003;64628;50.104;14.614;2023-05-16T05:51:15;34;33;
75946;PMS5003;64628;50.104;14.614;2023-05-16T05:53:41;40;39;
75946;PMS5003;64628;50.104;14.614;2023-05-16T05:56:07;39;34;
75946;PMS5003;64628;50.104;14.614;2023-05-16T05:58:32;38;38;
75946;PMS5003;64628;50.104;14.614;2023-05-16T06:00:57;44;40;
75946;PMS5003;64628;50.104;14.614;2023-05-16T06:03:23;48;43;
75946;PMS5003;64628;50.104;14.614;2023-05-16T06:05:49;35;33;
75946;PMS5003;64628;50.104;14.614;2023-05-16T06:08:14;40;38;
75946;PMS5003;64628;50.104;14.614;2023-05-16T06:10:39;32;31;
75946;PMS5003;64628;50.104;14.614;2023-05-16T06:13:05;40;39;
75946;PMS5003;64628;50.104;14.614;2023-05-16T06:15:30;39;36;
75946;PMS5003;64628;50.104;14.614;2023-05-16T06:17:56;38;38;
75946;PMS5003;64628;50.104;14.614;2023-05-16T10:20:12;37;36;
75946;PMS5003;64628;50.104;14.614;2023-05-16T10:22:39;40;38;
75946;PMS5003;64628;50.104;14.614;2023-05-16T10:25:06;43;41;
75946;PMS5003;64628;50.104;14.614;2023-05-16T10:27:28;42;42;
75946;PMS5003;64628;50.104;14.614;2023-05-16T10:29:53;41;39;
75946;PMS5003;64628;50.104;14.614;2023-05-16T10:32:19;40;39;
75946;PMS5003;64628;50.104;14.614;2023-05-16T10:34:44;38;37;
75946;PMS5003;64628;50.104;14.614;2023-05-16T10:37:10;52;49;
75946;PMS5003;64628;50.104;14.614;2023-05-16T10:39:36;47;43;
75946;PMS5003;64628;50.104;14.614;2023-05-16T10:42:01;49;48;
75946;PMS5003;64628;50.104;14.614;2023-05-16T10:44:26;44;41;
75946;PMS5003;64628;50.104;14.614;2023-05-16T10:46:51;46;42;
75946;PMS5003;64628;50.104;14.614;2023-05-16T10:49:20;46;44;
75946;PMS5003;64628;50.104;14.614;2023-05-16T10:51:42;33;31;
75946;PMS5003;64628;50.104;14.614;2023-05-16T10:54:08;46;42;
75946;PMS5003;64628;50.104;14.614;2023-05-16T10:56:32;40;36;
75946;PMS5003;64628;50.104;14.614;2023-05-16T10:58:58;35;33;
75946;PMS5003;64628;50.104;14.614;2023-05-16T11:01:24;41;39;
75946;PMS5003;64628;50.104;14.614;2023-05-16T11:06:19;34;33;
75946;PMS5003;64628;50.104;14.614;2023-05-16T11:13:31;35;34;
75946;PMS5003;64628;50.104;14.614;2023-05-16T11:18:21;44;40;
75946;PMS5003;64628;50.104;14.614;2023-05-16T11:20:47;45;42;
75946;PMS5003;64628;50.104;14.614;2023-05-16T11:23:19;38;37;
75946;PMS5003;64628;50.104;14.614;2023-05-16T11:25:37;37;36;
75946;PMS5003;64628;50.104;14.614;2023-05-16T11:28:03;46;42;
75946;PMS5003;64628;50.104;14.614;2023-05-16T11:30:28;42;37;
75946;PMS5003;64628;50.104;14.614;2023-05-16T11:32:53;47;43;
75946;PMS5003;64628;50.104;14.614;2023-05-16T11:35:19;51;48;
75946;PMS5003;64628;50.104;14.614;2023-05-16T11:37:44;41;39;
75946;PMS5003;64628;50.104;14.614;2023-05-16T11:40:10;39;35;
75946;PMS5003;64628;50.104;14.614;2023-05-16T11:42:36;48;42;
75946;PMS5003;64628;50.104;14.614;2023-05-16T11:45:04;47;44;
75946;PMS5003;64628;50.104;14.614;2023-05-16T11:47:26;39;37;
75946;PMS5003;64628;50.104;14.614;2023-05-16T11:49:55;41;37;
75946;PMS5003;64628;50.104;14.614;2023-05-16T11:52:16;47;43;
75946;PMS5003;64628;50.104;14.614;2023-05-16T11:54:42;44;42;
75946;PMS5003;64628;50.104;14.614;2023-05-16T11:57:07;47;41;
75946;PMS5003;64628;50.104;14.614;2023-05-16T11:59:32;34;33;
75946;PMS5003;64628;50.104;14.614;2023-05-16T12:01:58;49;43;
75946;PMS5003;64628;50.104;14.614;2023-05-16T12:04:23;47;43;
75946;PMS5003;64628;50.104;14.614;2023-05-16T12:09:14;35;34;
75946;PMS5003;64628;50.104;14.614;2023-05-16T12:11:40;36;34;
75946;PMS5003;64628;50.104;14.614;2023-05-16T12:14:04;42;41;
75946;PMS5003;64628;50.104;14.614;2023-05-16T12:16:29;39;38;
75946;PMS5003;64628;50.104;14.614;2023-05-16T12:18:55;42;42;
75946;PMS5003;64628;50.104;14.614;2023-05-16T12:21:21;42;38;
75946;PMS5003;64628;50.104;14.614;2023-05-16T12:23:46;41;40;
75946;PMS5003;64628;50.104;14.614;2023-05-16T12:26:12;48;45;
75946;PMS5003;64628;50.104;14.614;2023-05-16T12:28:37;52;46;
75946;PMS5003;64628;50.104;14.614;2023-05-16T12:31:03;41;39;
75946;PMS5003;64628;50.104;14.614;2023-05-16T12:33:28;48;42;
75946;PMS5003;64628;50.104;14.614;2023-05-16T12:35:53;46;46;
75946;PMS5003;64628;50.104;14.614;2023-05-16T12:38:19;40;38;
75946;PMS5003;64628;50.104;14.614;2023-05-16T12:40:44;53;46;
75946;PMS5003;64628;50.104;14.614;2023-05-16T12:43:13;41;39;
75946;PMS5003;64628;50.104;14.614;2023-05-16T12:45:36;43;41;
75946;PMS5003;64628;50.104;14.614;2023-05-16T12:48:04;49;45;
75946;PMS5003;64628;50.104;14.614;2023-05-16T12:50:27;37;35;
75946;PMS5003;64628;50.104;14.614;2023-05-16T12:52:57;40;34;
75946;PMS5003;64628;50.104;14.614;2023-05-16T12:55:18;41;40;
75946;PMS5003;64628;50.104;14.614;2023-05-16T12:57:44;44;42;
75946;PMS5003;64628;50.104;14.614;2023-05-16T13:00:10;40;40;
75946;PMS5003;64628;50.104;14.614;2023-05-16T13:02:34;37;35;
75946;PMS5003;64628;50.104;14.614;2023-05-16T13:05:01;38;36;
75946;PMS5003;64628;50.104;14.614;2023-05-16T13:07:25;40;36;
75946;PMS5003;64628;50.104;14.614;2023-05-16T13:12:16;36;34;
75946;PMS5003;64628;50.104;14.614;2023-05-16T13:14:42;37;36;
75946;PMS5003;64628;50.104;14.614;2023-05-16T13:17:07;42;36;
75946;PMS5003;64628;50.104;14.614;2023-05-16T13:19:33;34;30;
75946;PMS5003;64628;50.104;14.614;2023-05-16T13:21:58;33;32;
75946;PMS5003;64628;50.104;14.614;2023-05-16T13:24:23;35;33;
75946;PMS5003;64628;50.104;14.614;2023-05-16T13:26:48;35;33;
75946;PMS5003;64628;50.104;14.614;2023-05-16T13:29:18;52;47;
75946;PMS5003;64628;50.104;14.614;2023-05-16T13:36:42;36;31;
75946;PMS5003;64628;50.104;14.614;2023-05-16T13:38:57;37;36;
75946;PMS5003;64628;50.104;14.614;2023-05-16T13:41:22;37;35;
75946;PMS5003;64628;50.104;14.614;2023-05-16T13:43:48;36;34;
75946;PMS5003;64628;50.104;14.614;2023-05-16T13:46:13;45;42;
75946;PMS5003;64628;50.104;14.614;2023-05-16T13:48:39;32;30;
75946;PMS5003;64628;50.104;14.614;2023-05-16T13:51:04;29;29;
75946;PMS5003;64628;50.104;14.614;2023-05-16T13:53:30;38;35;
75946;PMS5003;64628;50.104;14.614;2023-05-16T13:55:56;40;34;
75946;PMS5003;64628;50.104;14.614;2023-05-16T13:58:21;35;35;
75946;PMS5003;64628;50.104;14.614;2023-05-16T14:00:47;37;33;
75946;PMS5003;64628;50.104;14.614;2023-05-16T14:03:11;41;39;
75946;PMS5003;64628;50.104;14.614;2023-05-16T14:05:37;32;30;
75946;PMS5003;64628;50.104;14.614;2023-05-16T14:08:02;42;38;
75946;PMS5003;64628;50.104;14.614;2023-05-16T14:10:28;41;37;
75946;PMS5003;64628;50.104;14.614;2023-05-16T14:12:53;38;37;
75946;PMS5003;64628;50.104;14.614;2023-05-16T14:15:18;47;41;
75946;PMS5003;64628;50.104;14.614;2023-05-16T14:34:43;61;56;
75946;PMS5003;64628;50.104;14.614;2023-05-16T14:37:09;31;25;
75946;PMS5003;64628;50.104;14.614;2023-05-16T14:44:26;30;29;
75946;PMS5003;64628;50.104;14.614;2023-05-16T15:01:23;36;27;
75946;PMS5003;64628;50.104;14.614;2023-05-16T15:08:38;43;38;
75946;PMS5003;64628;50.104;14.614;2023-05-16T15:11:03;49;42;
75946;PMS5003;64628;50.104;14.614;2023-05-16T15:13:29;32;30;
75946;PMS5003;64628;50.104;14.614;2023-05-16T15:15:54;42;37;
75946;PMS5003;64628;50.104;14.614;2023-05-16T15:18:20;41;36;
75946;PMS5003;64628;50.104;14.614;2023-05-16T15:20:45;34;34;
75946;PMS5003;64628;50.104;14.614;2023-05-16T15:23:10;69;68;
75946;PMS5003;64628;50.104;14.614;2023-05-16T15:25:35;48;44;
75946;PMS5003;64628;50.104;14.614;2023-05-16T15:28:01;38;32;
75946;PMS5003;64628;50.104;14.614;2023-05-16T15:30:26;44;42;
75946;PMS5003;64628;50.104;14.614;2023-05-16T15:35:17;42;36;
75946;PMS5003;64628;50.104;14.614;2023-05-16T15:37:43;69;62;
75946;PMS5003;64628;50.104;14.614;2023-05-16T15:40:09;72;70;
75946;PMS5003;64628;50.104;14.614;2023-05-16T15:42:33;38;32;
75946;PMS5003;64628;50.104;14.614;2023-05-16T15:44:58;61;59;
75946;PMS5003;64628;50.104;14.614;2023-05-16T15:47:24;35;30;
75946;PMS5003;64628;50.104;14.614;2023-05-16T15:49:49;34;33;
75946;PMS5003;64628;50.104;14.614;2023-05-16T15:52:15;53;50;
75946;PMS5003;64628;50.104;14.614;2023-05-16T15:54:40;38;35;
75946;PMS5003;64628;50.104;14.614;2023-05-16T15:57:05;57;54;
75946;PMS5003;64628;50.104;14.614;2023-05-16T15:59:30;44;40;
75946;PMS5003;64628;50.104;14.614;2023-05-16T16:01:56;40;35;
75946;PMS5003;64628;50.104;14.614;2023-05-16T16:04:21;35;31;
75946;PMS5003;64628;50.104;14.614;2023-05-16T16:06:46;54;49;
75946;PMS5003;64628;50.104;14.614;2023-05-16T16:09:11;41;39;
75946;PMS5003;64628;50.104;14.614;2023-05-16T16:11:37;42;34;
75946;PMS5003;64628;50.104;14.614;2023-05-16T16:14:02;39;35;
75946;PMS5003;64628;50.104;14.614;2023-05-16T16:16:28;60;56;
75946;PMS5003;64628;50.104;14.614;2023-05-16T16:18:53;43;39;
75946;PMS5003;64628;50.104;14.614;2023-05-16T16:21:19;40;35;
75946;PMS5003;64628;50.104;14.614;2023-05-16T16:23:44;42;40;
75946;PMS5003;64628;50.104;14.614;2023-05-16T16:26:09;44;41;
75946;PMS5003;64628;50.104;14.614;2023-05-16T16:28:35;41;35;
75946;PMS5003;64628;50.104;14.614;2023-05-16T16:31:00;38;33;
75946;PMS5003;64628;50.104;14.614;2023-05-16T16:33:26;53;50;
75946;PMS5003;64628;50.104;14.614;2023-05-16T16:35:51;68;64;
75946;PMS5003;64628;50.104;14.614;2023-05-16T16:38:16;39;38;
75946;PMS5003;64628;50.104;14.614;2023-05-16T16:40:41;40;34;
75946;PMS5003;64628;50.104;14.614;2023-05-16T17:36:33;30;29;
75946;PMS5003;64628;50.104;14.614;2023-05-16T18:08:03;24;22;
75946;PMS5003;64628;50.104;14.614;2023-05-16T18:10:23;28;26;
75946;PMS5003;64628;50.104;14.614;2023-05-16T18:12:49;29;26;
75946;PMS5003;64628;50.104;14.614;2023-05-16T18:17:40;29;28;
75946;PMS5003;64628;50.104;14.614;2023-05-16T18:22:38;29;25;
75946;PMS5003;64628;50.104;14.614;2023-05-16T18:24:54;34;33;
75946;PMS5003;64628;50.104;14.614;2023-05-16T18:27:20;22;22;
75946;PMS5003;64628;50.104;14.614;2023-05-16T18:32:12;28;28;
75946;PMS5003;64628;50.104;14.614;2023-05-16T18:34:43;22;20;
75946;PMS5003;64628;50.104;14.614;2023-05-16T18:37:02;23;19;
75946;PMS5003;64628;50.104;14.614;2023-05-16T18:39:27;19;18;
75946;PMS5003;64628;50.104;14.614;2023-05-16T18:41:53;20;18;
75946;PMS5003;64628;50.104;14.614;2023-05-16T18:44:18;22;20;
75946;PMS5003;64628;50.104;14.614;2023-05-16T18:49:09;21;20;
75946;PMS5003;64628;50.104;14.614;2023-05-16T18:51:34;18;15;
75946;PMS5003;64628;50.104;14.614;2023-05-16T18:54:01;17;17;
75946;PMS5003;64628;50.104;14.614;2023-05-16T18:56:25;18;14;
75946;PMS5003;64628;50.104;14.614;2023-05-16T18:58:50;19;16;
75946;PMS5003;64628;50.104;14.614;2023-05-16T19:01:16;19;19;
75946;PMS5003;64628;50.104;14.614;2023-05-16T19:03:41;22;21;
75946;PMS5003;64628;50.104;14.614;2023-05-16T19:06:07;17;14;
75946;PMS5003;64628;50.104;14.614;2023-05-16T19:08:32;19;17;
75946;PMS5003;64628;50.104;14.614;2023-05-16T19:10:57;18;16;
75946;PMS5003;64628;50.104;14.614;2023-05-16T19:13:22;14;14;
75946;PMS5003;64628;50.104;14.614;2023-05-16T19:15:48;16;13;
75946;PMS5003;64628;50.104;14.614;2023-05-16T19:18:13;18;14;
75946;PMS5003;64628;50.104;14.614;2023-05-16T19:20:39;24;18;
75946;PMS5003;64628;50.104;14.614;2023-05-16T19:23:04;16;16;
75946;PMS5003;64628;50.104;14.614;2023-05-16T19:25:29;13;13;
75946;PMS5003;64628;50.104;14.614;2023-05-16T19:27:54;14;14;
75946;PMS5003;64628;50.104;14.614;2023-05-16T19:30:20;16;13;
75946;PMS5003;64628;50.104;14.614;2023-05-16T19:32:45;22;21;
75946;PMS5003;64628;50.104;14.614;2023-05-16T19:35:11;20;17;
75946;PMS5003;64628;50.104;14.614;2023-05-16T19:37:36;17;17;
75946;PMS5003;64628;50.104;14.614;2023-05-16T19:45:04;16;16;
75946;PMS5003;64628;50.104;14.614;2023-05-16T19:57:05;19;18;
75946;PMS5003;64628;50.104;14.614;2023-05-16T20:06:44;16;16;
75946;PMS5003;64628;50.104;14.614;2023-05-16T20:09:12;20;17;
75946;PMS5003;64628;50.104;14.614;2023-05-16T20:11:38;16;14;
75946;PMS5003;64628;50.104;14.614;2023-05-16T20:13:55;19;17;
75946;PMS5003;64628;50.104;14.614;2023-05-16T20:18:48;17;16;
75946;PMS5003;64628;50.104;14.614;2023-05-16T20:21:11;17;16;
75946;PMS5003;64628;50.104;14.614;2023-05-16T20:28:33;19;19;
75946;PMS5003;64628;50.104;14.614;2023-05-16T20:40:41;16;12;
75946;PMS5003;64628;50.104;14.614;2023-05-16T20:42:58;19;18;
75946;PMS5003;64628;50.104;14.614;2023-05-16T20:52:43;19;16;
75946;PMS5003;64628;50.104;14.614;2023-05-16T20:55:07;17;16;
75946;PMS5003;64628;50.104;14.614;2023-05-16T20:57:38;14;14;
75946;PMS5003;64628;50.104;14.614;2023-05-16T21:00:02;19;18;
75946;PMS5003;64628;50.104;14.614;2023-05-16T21:12:02;13;13;
75946;PMS5003;64628;50.104;14.614;2023-05-16T21:19:26;12;12;
75946;PMS5003;64628;50.104;14.614;2023-05-16T21:21:45;21;19;
75946;PMS5003;64628;50.104;14.614;2023-05-16T21:26:40;18;17;
75946;PMS5003;64628;50.104;14.614;2023-05-16T21:31:26;14;13;
75946;PMS5003;64628;50.104;14.614;2023-05-16T21:33:51;14;13;
75946;PMS5003;64628;50.104;14.614;2023-05-16T21:38:45;14;12;
75946;PMS5003;64628;50.104;14.614;2023-05-16T21:41:07;17;17;
75946;PMS5003;64628;50.104;14.614;2023-05-16T21:46:05;14;14;
75946;PMS5003;64628;50.104;14.614;2023-05-16T21:48:24;11;11;
75946;PMS5003;64628;50.104;14.614;2023-05-16T21:55:41;16;16;
75946;PMS5003;64628;50.104;14.614;2023-05-16T21:58:03;20;13;
75946;PMS5003;64628;50.104;14.614;2023-05-16T22:00:28;20;20;
75946;PMS5003;64628;50.104;14.614;2023-05-16T22:02:56;12;9;
75946;PMS5003;64628;50.104;14.614;2023-05-16T22:05:20;17;14;
75946;PMS5003;64628;50.104;14.614;2023-05-16T22:07:53;17;17;
75946;PMS5003;64628;50.104;14.614;2023-05-16T22:10:10;16;13;
75946;PMS5003;64628;50.104;14.614;2023-05-16T22:12:35;13;13;
75946;PMS5003;64628;50.104;14.614;2023-05-16T22:15:07;13;13;
75946;PMS5003;64628;50.104;14.614;2023-05-16T22:17:28;20;19;
75946;PMS5003;64628;50.104;14.614;2023-05-16T22:22:17;16;16;
75946;PMS5003;64628;50.104;14.614;2023-05-16T22:24:43;20;17;
75946;PMS5003;64628;50.104;14.614;2023-05-16T22:27:07;18;17;
75946;PMS5003;64628;50.104;14.614;2023-05-16T22:29:33;19;17;
75946;PMS5003;64628;50.104;14.614;2023-05-16T22:34:28;13;12;
75946;PMS5003;64628;50.104;14.614;2023-05-16T22:36:52;18;14;
75946;PMS5003;64628;50.104;14.614;2023-05-16T22:44:05;17;13;
75946;PMS5003;64628;50.104;14.614;2023-05-16T22:49:04;13;12;
75946;PMS5003;64628;50.104;14.614;2023-05-16T22:51:23;16;16;
75946;PMS5003;64628;50.104;14.614;2023-05-16T22:53:49;17;16;
75946;PMS5003;64628;50.104;14.614;2023-05-16T22:56:12;19;16;
75946;PMS5003;64628;50.104;14.614;2023-05-16T22:58:38;17;13;
75946;PMS5003;64628;50.104;14.614;2023-05-16T23:03:37;13;13;
75946;PMS5003;64628;50.104;14.614;2023-05-16T23:05:58;14;12;
75946;PMS5003;64628;50.104;14.614;2023-05-16T23:08:24;20;18;
75946;PMS5003;64628;50.104;14.614;2023-05-16T23:13:07;14;12;
75946;PMS5003;64628;50.104;14.614;2023-05-16T23:15:40;20;18;
75946;PMS5003;64628;50.104;14.614;2023-05-16T23:20:27;13;12;
75946;PMS5003;64628;50.104;14.614;2023-05-16T23:22:52;15;14;
75946;PMS5003;64628;50.104;14.614;2023-05-16T23:25:15;19;18;
75946;PMS5003;64628;50.104;14.614;2023-05-16T23:32:30;17;14;
75946;PMS5003;64628;50.104;14.614;2023-05-16T23:35:02;14;14;
75946;PMS5003;64628;50.104;14.614;2023-05-16T23:37:24;17;14;
75946;PMS5003;64628;50.104;14.614;2023-05-16T23:42:18;13;11;
75946;PMS5003;64628;50.104;14.614;2023-05-16T23:44:41;13;12;
75946;PMS5003;64628;50.104;14.614;2023-05-16T23:47:06;26;22;
75946;PMS5003;64628;50.104;14.614;2023-05-16T23:49:32;18;14;
75946;PMS5003;64628;50.104;14.614;2023-05-16T23:51:54;12;12;
75946;PMS5003;64628;50.104;14.614;2023-05-16T23:54:22;18;14;
75946;PMS5003;64628;50.104;14.614;2023-05-16T23:59:16;17;13;
